createdAt,value
2023-05-21T00:00:51.767Z,8.05
2023-05-21T00:03:18.633Z,7.57
2023-05-21T00:05:47.220Z,7.95
2023-05-21T00:08:14.376Z,6.93
2023-05-21T00:10:41.024Z,8.43
2023-05-21T00:13:09.115Z,7.85
2023-05-21T00:15:36.627Z,6.47
2023-05-21T00:18:03.681Z,9.32
2023-05-21T00:20:32.456Z,8.00
2023-05-21T00:23:02.837Z,10.97
2023-05-21T00:25:29.580Z,10.32
2023-05-21T00:27:56.491Z,7.88
2023-05-21T00:30:23.570Z,8.10
2023-05-21T00:32:50.711Z,8.98
2023-05-21T00:35:17.594Z,8.95
2023-05-21T00:37:44.266Z,8.68
2023-05-21T00:40:13.643Z,8.25
2023-05-21T00:42:41.239Z,7.85
2023-05-21T00:45:08.738Z,9.05
2023-05-21T00:47:36.049Z,10.98
2023-05-21T00:50:04.665Z,10.02
2023-05-21T00:52:31.531Z,10.25
2023-05-21T00:54:58.280Z,9.20
2023-05-21T00:57:27.293Z,9.15
2023-05-21T00:59:54.312Z,10.80
2023-05-21T01:02:24.187Z,8.60
2023-05-21T01:04:54.550Z,11.73
2023-05-21T01:07:21.914Z,10.70
2023-05-21T01:09:48.776Z,10.43
2023-05-21T01:12:15.652Z,7.38
2023-05-21T01:14:42.744Z,10.55
2023-05-21T01:17:10.562Z,9.40
2023-05-21T01:19:37.612Z,9.93
2023-05-21T01:22:06.831Z,7.03
2023-05-21T01:24:34.965Z,7.90
2023-05-21T01:27:03.643Z,7.47
2023-05-21T01:29:30.376Z,12.10
2023-05-21T01:32:09.618Z,7.25
2023-05-21T01:34:43.769Z,9.43
2023-05-21T01:37:43.068Z,10.52
2023-05-21T01:40:40.427Z,9.52
2023-05-21T01:43:09.410Z,13.75
2023-05-21T01:45:40.635Z,8.95
2023-05-21T01:48:09.190Z,8.23
2023-05-21T01:50:39.297Z,10.80
2023-05-21T01:53:06.206Z,8.88
2023-05-21T01:55:33.477Z,9.43
2023-05-21T01:58:02.537Z,13.52
2023-05-21T02:00:30.903Z,10.73
2023-05-21T02:02:58.787Z,10.95
2023-05-21T02:05:25.823Z,12.63
2023-05-21T02:07:52.823Z,12.95
2023-05-21T02:10:19.614Z,8.48
2023-05-21T02:12:46.505Z,10.80
2023-05-21T02:15:17.167Z,9.77
2023-05-21T02:17:44.334Z,10.45
2023-05-21T02:20:13.736Z,9.00
2023-05-21T02:22:45.952Z,10.25
2023-05-21T02:25:14.741Z,10.68
2023-05-21T02:27:42.566Z,10.13
2023-05-21T02:30:11.437Z,10.38
2023-05-21T02:32:42.633Z,9.43
2023-05-21T02:35:12.080Z,9.52
2023-05-21T02:37:44.080Z,8.98
2023-05-21T02:40:11.771Z,10.63
2023-05-21T02:42:40.500Z,12.60
2023-05-21T02:45:11.666Z,10.70
2023-05-21T02:47:40.904Z,9.57
2023-05-21T02:50:09.673Z,11.70
2023-05-21T02:52:44.048Z,12.57
2023-05-21T02:55:12.447Z,9.55
2023-05-21T02:57:39.086Z,9.70
2023-05-21T03:00:08.127Z,10.63
2023-05-21T03:02:35.302Z,16.33
2023-05-21T03:05:02.842Z,10.27
2023-05-21T03:07:29.444Z,10.07
2023-05-21T03:09:56.262Z,12.98
2023-05-21T03:12:23.015Z,11.98
2023-05-21T03:14:51.343Z,11.88
2023-05-21T03:17:20.681Z,11.60
2023-05-21T03:19:49.097Z,9.68
2023-05-21T03:22:16.112Z,12.48
2023-05-21T03:24:42.798Z,11.18
2023-05-21T03:27:09.511Z,10.73
2023-05-21T03:29:36.337Z,11.55
2023-05-21T03:32:04.029Z,10.45
2023-05-21T03:34:34.523Z,10.68
2023-05-21T03:37:02.347Z,12.65
2023-05-21T03:39:29.775Z,9.63
2023-05-21T03:41:57.313Z,11.00
2023-05-21T03:44:36.605Z,15.20
2023-05-21T03:47:23.557Z,9.95
2023-05-21T03:49:51.521Z,10.32
2023-05-21T03:52:18.332Z,12.90
2023-05-21T03:54:45.098Z,13.65
2023-05-21T03:57:11.919Z,12.18
2023-05-21T03:59:38.666Z,11.60
2023-05-21T04:02:05.314Z,10.88
2023-05-21T04:04:33.849Z,9.90
2023-05-21T04:07:01.069Z,11.43
2023-05-21T04:09:28.017Z,10.63
2023-05-21T04:11:54.802Z,10.18
2023-05-21T04:14:23.301Z,10.38
2023-05-21T04:16:51.891Z,12.68
2023-05-21T04:19:20.190Z,13.80
2023-05-21T04:24:16.625Z,12.98
2023-05-21T04:26:52.875Z,13.18
2023-05-21T04:29:21.138Z,14.00
2023-05-21T04:31:49.679Z,14.93
2023-05-21T04:34:19.926Z,11.63
2023-05-21T04:36:46.662Z,10.65
2023-05-21T04:39:14.842Z,13.93
2023-05-21T04:41:41.556Z,11.82
2023-05-21T04:44:09.043Z,11.32
2023-05-21T04:46:36.005Z,12.88
2023-05-21T04:49:03.108Z,10.52
2023-05-21T04:51:31.260Z,11.93
2023-05-21T04:53:58.318Z,10.85
2023-05-21T04:56:28.126Z,14.80
2023-05-21T04:58:54.920Z,13.32
2023-05-21T05:01:27.129Z,13.38
2023-05-21T05:03:54.165Z,13.65
2023-05-21T05:06:21.577Z,14.73
2023-05-21T05:08:48.488Z,11.93
2023-05-21T05:11:16.292Z,11.05
2023-05-21T05:13:43.279Z,11.05
2023-05-21T05:16:10.135Z,11.13
2023-05-21T05:18:37.323Z,14.50
2023-05-21T05:21:04.274Z,11.73
2023-05-21T05:23:32.082Z,13.23
2023-05-21T05:25:58.980Z,13.30
2023-05-21T05:28:26.465Z,12.88
2023-05-21T05:30:53.976Z,13.60
2023-05-21T05:33:25.079Z,11.25
2023-05-21T05:35:53.205Z,13.90
2023-05-21T05:38:21.165Z,12.75
2023-05-21T05:40:48.011Z,13.45
2023-05-21T05:43:14.803Z,13.32
2023-05-21T05:45:41.618Z,16.40
2023-05-21T05:48:13.008Z,13.00
2023-05-21T05:50:39.698Z,12.93
2023-05-21T05:53:07.457Z,11.75
2023-05-21T05:55:34.747Z,11.73
2023-05-21T05:58:01.745Z,13.00
2023-05-21T06:00:28.554Z,15.38
2023-05-21T06:02:58.511Z,13.52
2023-05-21T06:05:28.833Z,14.32
2023-05-21T06:07:56.675Z,14.02
2023-05-21T06:10:23.368Z,16.73
2023-05-21T06:12:50.024Z,13.52
2023-05-21T06:15:16.765Z,12.68
2023-05-21T06:17:44.265Z,13.88
2023-05-21T06:20:13.104Z,16.58
2023-05-21T06:22:40.147Z,16.67
2023-05-21T06:25:10.717Z,15.63
2023-05-21T06:27:38.624Z,21.38
2023-05-21T06:30:10.092Z,14.38
2023-05-21T06:32:36.849Z,16.10
2023-05-21T06:35:04.935Z,13.48
2023-05-21T06:37:31.837Z,11.45
2023-05-21T06:39:58.509Z,12.18
2023-05-21T06:42:25.180Z,14.45
2023-05-21T06:45:02.050Z,13.00
2023-05-21T06:47:31.415Z,12.05
2023-05-21T06:49:59.514Z,16.45
2023-05-21T06:52:29.036Z,15.98
2023-05-21T06:57:24.736Z,13.07
2023-05-21T06:59:51.823Z,17.88
2023-05-21T07:02:18.581Z,13.05
2023-05-21T07:04:45.330Z,14.88
2023-05-21T07:07:12.491Z,15.25
2023-05-21T07:09:39.662Z,11.48
2023-05-21T07:12:08.023Z,14.40
2023-05-21T07:14:34.844Z,11.73
2023-05-21T07:17:02.014Z,16.45
2023-05-21T07:19:28.942Z,14.13
2023-05-21T07:21:56.680Z,15.23
2023-05-21T07:24:23.647Z,17.15
2023-05-21T07:26:50.520Z,12.55
2023-05-21T07:29:17.454Z,14.68
2023-05-21T07:31:44.545Z,11.10
2023-05-21T07:34:11.258Z,13.50
2023-05-21T07:36:40.384Z,13.52
2023-05-21T07:39:07.139Z,13.68
2023-05-21T07:41:34.879Z,11.13
2023-05-21T07:44:05.700Z,14.80
2023-05-21T07:46:36.937Z,16.90
2023-05-21T07:49:03.663Z,14.45
2023-05-21T07:51:31.045Z,14.93
2023-05-21T07:53:57.730Z,14.30
2023-05-21T07:56:32.401Z,12.93
2023-05-21T07:58:59.427Z,14.65
2023-05-21T08:01:29.595Z,12.90
2023-05-21T08:04:00.890Z,13.32
2023-05-21T08:06:27.950Z,16.30
2023-05-21T08:08:54.697Z,15.13
2023-05-21T08:11:21.890Z,13.43
2023-05-21T08:13:48.573Z,14.05
2023-05-21T08:16:16.577Z,13.73
2023-05-21T08:18:43.640Z,13.20
2023-05-21T08:21:10.746Z,14.80
2023-05-21T08:23:38.543Z,13.07
2023-05-21T08:26:05.316Z,13.50
2023-05-21T08:28:32.145Z,14.05
2023-05-21T08:31:01.651Z,12.02
2023-05-21T08:35:57.527Z,15.25
2023-05-21T08:38:38.371Z,13.65
2023-05-21T08:41:25.155Z,16.73
2023-05-21T08:43:57.642Z,14.30
2023-05-21T08:46:29.114Z,13.38
2023-05-21T08:48:55.986Z,13.20
2023-05-21T08:51:24.531Z,14.30
2023-05-21T08:53:53.275Z,13.68
2023-05-21T08:56:21.193Z,17.42
2023-05-21T08:58:52.615Z,14.48
2023-05-21T09:01:24.161Z,15.07
2023-05-21T09:04:16.295Z,14.02
2023-05-21T09:06:47.484Z,15.30
2023-05-21T09:09:28.179Z,15.65
2023-05-21T09:11:55.290Z,14.95
2023-05-21T09:14:23.437Z,16.95
2023-05-21T09:17:00.934Z,16.48
2023-05-21T09:19:30.256Z,14.15
2023-05-21T09:22:02.435Z,16.30
2023-05-21T09:24:33.094Z,12.40
2023-05-21T09:27:02.337Z,16.02
2023-05-21T09:29:30.933Z,15.50
2023-05-21T09:31:57.654Z,17.50
2023-05-21T09:34:25.233Z,16.02
2023-05-21T09:36:52.074Z,14.40
2023-05-21T09:39:29.858Z,18.00
2023-05-21T09:42:00.043Z,14.23
2023-05-21T09:44:27.066Z,17.17
2023-05-21T09:47:01.187Z,15.93
2023-05-21T09:49:28.632Z,15.27
2023-05-21T09:51:58.229Z,14.05
2023-05-21T09:54:26.536Z,14.98
2023-05-21T09:56:53.583Z,15.73
2023-05-21T09:59:20.870Z,16.80
2023-05-21T10:01:51.576Z,15.65
2023-05-21T10:04:18.830Z,15.80
2023-05-21T10:06:47.884Z,17.10
2023-05-21T10:09:18.896Z,14.68
2023-05-21T10:11:49.537Z,16.45
2023-05-21T10:14:25.560Z,16.20
2023-05-21T10:16:54.732Z,14.63
2023-05-21T10:19:22.829Z,14.07
2023-05-21T10:21:51.939Z,15.40
2023-05-21T10:24:20.089Z,13.45
2023-05-21T10:26:47.992Z,16.92
2023-05-21T10:29:17.361Z,13.98
2023-05-21T10:31:49.775Z,17.80
2023-05-21T10:34:16.744Z,16.80
2023-05-21T10:36:44.633Z,16.25
2023-05-21T10:39:13.017Z,15.10
2023-05-21T10:41:53.850Z,17.95
2023-05-21T10:44:46.026Z,19.35
2023-05-21T10:47:52.144Z,17.48
2023-05-21T10:50:48.991Z,18.92
2023-05-21T10:53:43.561Z,17.45
2023-05-21T10:56:36.285Z,17.23
2023-05-21T10:59:12.643Z,16.73
2023-05-21T11:01:41.290Z,14.13
2023-05-21T11:04:08.253Z,16.77
2023-05-21T11:06:34.962Z,18.35
2023-05-21T11:09:11.450Z,15.95
2023-05-21T11:11:48.450Z,15.10
2023-05-21T11:14:35.489Z,15.35
2023-05-21T11:17:40.013Z,17.50
2023-05-21T11:20:16.729Z,16.80
2023-05-21T11:22:46.613Z,18.35
2023-05-21T11:25:14.533Z,19.48
2023-05-21T11:27:42.126Z,17.55
2023-05-21T11:30:18.755Z,18.45
2023-05-21T11:33:07.488Z,15.77
2023-05-21T11:35:46.259Z,18.52
2023-05-21T11:38:13.003Z,16.08
2023-05-21T11:40:50.772Z,16.45
2023-05-21T11:43:18.586Z,16.40
2023-05-21T11:45:47.347Z,17.00
2023-05-21T11:48:14.559Z,15.80
2023-05-21T11:50:42.604Z,14.50
2023-05-21T11:53:12.392Z,16.20
2023-05-21T11:55:43.599Z,14.45
2023-05-21T11:58:13.744Z,16.77
2023-05-21T12:00:40.942Z,18.80
2023-05-21T12:03:08.488Z,16.02
2023-05-21T12:05:48.818Z,13.45
2023-05-21T12:08:25.319Z,16.55
2023-05-21T12:10:59.940Z,14.02
2023-05-21T12:13:27.355Z,13.80
2023-05-21T12:15:54.573Z,15.57
2023-05-21T12:18:21.738Z,17.00
2023-05-21T12:20:48.541Z,17.98
2023-05-21T12:23:23.928Z,18.10
2023-05-21T12:25:51.442Z,17.65
2023-05-21T12:28:18.226Z,17.15
2023-05-21T12:30:44.912Z,16.42
2023-05-21T12:33:12.164Z,16.33
2023-05-21T12:35:38.953Z,18.48
2023-05-21T12:38:07.296Z,18.17
2023-05-21T12:40:41.034Z,15.63
2023-05-21T12:43:08.057Z,16.92
2023-05-21T12:45:36.674Z,17.70
2023-05-21T12:48:03.650Z,17.20
2023-05-21T12:50:30.304Z,14.90
2023-05-21T12:52:58.230Z,17.75
2023-05-21T12:55:28.164Z,14.00
2023-05-21T12:58:08.866Z,17.77
2023-05-21T13:00:36.473Z,15.73
2023-05-21T13:03:04.540Z,17.23
2023-05-21T13:05:31.479Z,18.60
2023-05-21T13:07:58.425Z,18.42
2023-05-21T13:10:25.255Z,17.73
2023-05-21T13:12:52.026Z,16.08
2023-05-21T13:15:18.953Z,18.48
2023-05-21T13:17:46.892Z,17.83
2023-05-21T13:20:26.424Z,17.05
2023-05-21T13:22:53.979Z,18.27
2023-05-21T13:25:28.651Z,15.00
2023-05-21T13:27:56.918Z,15.32
2023-05-21T13:30:23.561Z,15.07
2023-05-21T13:32:50.277Z,17.75
2023-05-21T13:35:17.632Z,15.57
2023-05-21T13:37:45.050Z,15.90
2023-05-21T13:40:16.343Z,19.40
2023-05-21T13:42:48.749Z,16.13
2023-05-21T13:45:20.967Z,14.70
2023-05-21T13:47:48.198Z,21.10
2023-05-21T13:50:15.466Z,16.27
2023-05-21T13:52:42.362Z,15.68
2023-05-21T13:55:12.234Z,17.98
2023-05-21T13:57:40.658Z,14.40
2023-05-21T14:00:09.939Z,16.70
2023-05-21T14:02:36.828Z,19.15
2023-05-21T14:05:03.642Z,17.33
2023-05-21T14:07:30.973Z,19.48
2023-05-21T14:09:58.409Z,16.83
2023-05-21T14:12:25.102Z,15.07
2023-05-21T14:14:51.779Z,15.93
2023-05-21T14:17:18.422Z,19.48
2023-05-21T14:19:45.139Z,17.58
2023-05-21T14:22:11.806Z,14.40
2023-05-21T14:24:38.585Z,16.70
2023-05-21T14:27:05.586Z,16.67
2023-05-21T14:29:33.229Z,15.65
2023-05-21T14:31:59.970Z,16.45
2023-05-21T14:34:26.901Z,14.45
2023-05-21T14:36:53.677Z,14.27
2023-05-21T14:39:20.266Z,16.00
2023-05-21T14:41:46.925Z,19.23
2023-05-21T14:44:13.705Z,16.23
2023-05-21T14:46:40.630Z,18.05
2023-05-21T14:49:07.297Z,14.20
2023-05-21T14:51:34.356Z,15.15
2023-05-21T14:54:01.024Z,15.68
2023-05-21T14:56:28.216Z,15.15
2023-05-21T14:58:55.244Z,18.15
2023-05-21T15:01:22.329Z,16.70
2023-05-21T15:03:49.453Z,16.40
2023-05-21T15:06:16.198Z,16.33
2023-05-21T15:08:43.012Z,15.00
2023-05-21T15:11:10.055Z,15.73
2023-05-21T15:13:36.916Z,15.98
2023-05-21T15:16:04.044Z,17.52
2023-05-21T15:18:30.781Z,15.07
2023-05-21T15:20:58.244Z,15.57
2023-05-21T15:23:24.995Z,21.80
2023-05-21T15:25:51.878Z,19.80
2023-05-21T15:28:18.548Z,16.10
2023-05-21T15:30:45.336Z,17.20
2023-05-21T15:33:12.211Z,20.92
2023-05-21T15:35:39.499Z,17.77
2023-05-21T15:38:06.630Z,18.67
2023-05-21T15:40:33.449Z,17.42
2023-05-21T15:43:00.227Z,18.35
2023-05-21T15:45:26.988Z,18.80
2023-05-21T15:47:53.709Z,16.88
2023-05-21T15:50:20.455Z,16.88
2023-05-21T15:52:47.141Z,19.75
2023-05-21T15:55:14.268Z,19.20
2023-05-21T15:57:41.141Z,15.98
2023-05-21T16:00:09.830Z,18.98
2023-05-21T16:02:36.760Z,17.30
2023-05-21T16:05:03.703Z,16.38
2023-05-21T16:07:30.591Z,17.80
2023-05-21T16:09:57.314Z,16.25
2023-05-21T16:12:24.322Z,17.33
2023-05-21T16:14:51.105Z,17.35
2023-05-21T16:17:19.579Z,20.25
2023-05-21T16:19:47.182Z,15.60
2023-05-21T16:22:13.889Z,17.67
2023-05-21T16:24:40.624Z,17.52
2023-05-21T16:27:07.191Z,17.95
2023-05-21T16:29:33.775Z,15.45
2023-05-21T16:32:00.491Z,15.60
2023-05-21T16:34:27.448Z,16.65
2023-05-21T16:36:54.117Z,16.67
2023-05-21T16:39:20.797Z,15.18
2023-05-21T16:41:50.617Z,18.17
2023-05-21T16:44:17.416Z,17.63
2023-05-21T16:46:44.162Z,16.13
2023-05-21T16:49:10.807Z,15.50
2023-05-21T16:51:37.443Z,18.50
2023-05-21T16:54:04.804Z,15.63
2023-05-21T16:56:31.650Z,18.00
2023-05-21T16:58:58.537Z,15.45
2023-05-21T17:01:25.479Z,15.27
2023-05-21T17:03:53.038Z,21.42
2023-05-21T17:06:20.057Z,15.32
2023-05-21T17:08:47.287Z,17.98
2023-05-21T17:11:13.964Z,16.85
2023-05-21T17:13:41.035Z,16.33
2023-05-21T17:16:07.872Z,17.63
2023-05-21T17:18:34.566Z,17.50
2023-05-21T17:21:01.203Z,15.85
2023-05-21T17:23:27.821Z,18.35
2023-05-21T17:25:54.457Z,14.65
2023-05-21T17:28:21.105Z,14.43
2023-05-21T17:30:49.605Z,15.15
2023-05-21T17:33:16.682Z,15.70
2023-05-21T17:35:43.461Z,14.60
2023-05-21T17:38:10.421Z,18.88
2023-05-21T17:40:37.140Z,15.20
2023-05-21T17:43:04.820Z,16.20
2023-05-21T17:45:31.542Z,17.38
2023-05-21T17:48:00.168Z,18.77
2023-05-21T17:50:27.505Z,17.00
2023-05-21T17:52:54.118Z,17.27
2023-05-21T17:55:20.778Z,17.13
2023-05-21T17:57:47.432Z,18.45
2023-05-21T18:00:17.503Z,15.25
2023-05-21T18:02:44.168Z,17.77
2023-05-21T18:05:13.839Z,16.17
2023-05-21T18:07:41.292Z,16.25
2023-05-21T18:10:08.436Z,13.25
2023-05-21T18:12:35.809Z,14.88
2023-05-21T18:15:02.427Z,15.82
2023-05-21T18:17:29.210Z,16.30
2023-05-21T18:19:56.376Z,14.68
2023-05-21T18:22:22.974Z,15.70
2023-05-21T18:24:49.623Z,16.00
2023-05-21T18:27:16.332Z,14.23
2023-05-21T18:29:43.249Z,13.27
2023-05-21T18:32:11.667Z,18.17
2023-05-21T18:34:38.509Z,14.82
2023-05-21T18:37:05.284Z,14.20
2023-05-21T18:39:31.930Z,12.90
2023-05-21T18:42:12.320Z,14.50
2023-05-21T18:44:40.580Z,16.40
2023-05-21T18:47:07.742Z,14.10
2023-05-21T18:49:36.085Z,12.90
2023-05-21T18:52:03.959Z,17.77
2023-05-21T18:54:31.203Z,16.30
2023-05-21T18:57:00.399Z,16.58
2023-05-21T19:01:55.506Z,15.45
2023-05-21T19:04:22.476Z,15.73
2023-05-21T19:06:49.281Z,17.95
2023-05-21T19:09:16.162Z,17.25
2023-05-21T19:11:43.106Z,20.15
2023-05-21T19:14:09.928Z,15.77
2023-05-21T19:16:36.793Z,16.40
2023-05-21T19:19:04.171Z,16.33
2023-05-21T19:21:31.675Z,14.32
2023-05-21T19:23:58.521Z,15.02
2023-05-21T19:26:25.257Z,16.75
2023-05-21T19:28:53.813Z,14.57
2023-05-21T19:31:22.226Z,15.23
2023-05-21T19:33:49.328Z,14.05
2023-05-21T19:36:16.138Z,15.43
2023-05-21T19:38:48.279Z,11.52
2023-05-21T19:41:19.630Z,15.35
2023-05-21T19:43:46.519Z,11.18
2023-05-21T19:46:15.948Z,15.07
2023-05-21T19:48:45.009Z,13.48
2023-05-21T19:51:11.713Z,12.27
2023-05-21T19:53:38.385Z,12.57
2023-05-21T19:56:05.196Z,10.45
2023-05-21T19:58:33.037Z,9.52
2023-05-21T20:00:59.726Z,10.35
2023-05-21T20:03:27.134Z,10.48
2023-05-21T20:05:54.588Z,13.65
2023-05-21T20:08:21.709Z,9.73
2023-05-21T20:10:51.324Z,11.40
2023-05-21T20:13:18.592Z,8.63
2023-05-21T20:15:45.591Z,10.07
2023-05-21T20:18:12.793Z,11.32
2023-05-21T20:20:40.691Z,10.75
2023-05-21T20:23:08.015Z,14.75
2023-05-21T20:25:34.840Z,12.15
2023-05-21T20:28:03.372Z,12.90
2023-05-21T20:30:35.975Z,11.30
2023-05-21T20:33:03.670Z,13.00
2023-05-21T20:35:30.953Z,12.82
2023-05-21T20:37:57.723Z,12.43
2023-05-21T20:40:24.561Z,15.57
2023-05-21T20:42:53.481Z,14.52
2023-05-21T20:45:21.032Z,14.98
2023-05-21T20:47:49.965Z,15.65
2023-05-21T20:50:17.789Z,11.80
2023-05-21T20:52:47.150Z,15.38
2023-05-21T20:55:14.513Z,12.73
2023-05-21T20:57:42.074Z,13.48
2023-05-21T21:00:12.776Z,16.60
2023-05-21T21:02:42.591Z,13.32
2023-05-21T21:05:12.543Z,15.18
2023-05-21T21:07:39.341Z,17.77
2023-05-21T21:10:06.421Z,15.60
2023-05-21T21:12:33.115Z,15.65
2023-05-21T21:14:59.709Z,14.15
2023-05-21T21:17:26.427Z,12.60
2023-05-21T21:19:53.253Z,14.27
2023-05-21T21:22:19.874Z,22.50
2023-05-21T21:24:47.480Z,14.88
2023-05-21T21:27:14.188Z,15.63
2023-05-21T21:29:40.832Z,12.98
2023-05-21T21:32:07.807Z,14.57
2023-05-21T21:34:34.425Z,14.38
2023-05-21T21:37:01.044Z,15.10
2023-05-21T21:39:27.737Z,13.10
2023-05-21T21:41:54.375Z,15.48
2023-05-21T21:44:21.174Z,14.38
2023-05-21T21:46:47.838Z,13.57
2023-05-21T21:49:17.239Z,17.65
2023-05-21T21:51:44.766Z,15.73
2023-05-21T21:54:11.709Z,15.30
2023-05-21T21:56:38.430Z,16.20
2023-05-21T21:59:05.054Z,16.63
2023-05-21T22:01:31.970Z,18.38
2023-05-21T22:03:58.663Z,17.42
2023-05-21T22:06:25.773Z,17.88
2023-05-21T22:08:52.476Z,16.67
2023-05-21T22:11:19.226Z,17.77
2023-05-21T22:13:45.859Z,15.27
2023-05-21T22:16:12.978Z,15.88
2023-05-21T22:18:41.967Z,16.65
2023-05-21T22:21:10.431Z,16.55
2023-05-21T22:23:38.521Z,15.27
2023-05-21T22:26:05.897Z,14.68
2023-05-21T22:28:32.812Z,15.07
2023-05-21T22:30:59.538Z,15.82
2023-05-21T22:33:26.822Z,15.80
2023-05-21T22:35:54.385Z,18.02
2023-05-21T22:38:21.526Z,16.05
2023-05-21T22:40:48.238Z,25.98
2023-05-21T22:43:15.013Z,15.65
2023-05-21T22:45:41.636Z,16.75
2023-05-21T22:48:09.131Z,19.73
2023-05-21T22:50:38.616Z,17.65
2023-05-21T22:53:06.480Z,20.08
2023-05-21T22:55:33.226Z,17.77
2023-05-21T22:57:59.916Z,21.65
2023-05-21T23:00:26.818Z,21.17
2023-05-21T23:02:54.838Z,25.55
2023-05-21T23:05:22.279Z,19.15
2023-05-21T23:07:49.305Z,20.60
2023-05-21T23:10:16.011Z,19.35
2023-05-21T23:12:42.724Z,25.13
2023-05-21T23:15:10.110Z,23.83
2023-05-21T23:17:37.938Z,19.08
2023-05-21T23:20:07.056Z,27.50
2023-05-21T23:22:34.205Z,20.98
2023-05-21T23:25:01.049Z,27.48
2023-05-21T23:27:27.673Z,22.83
2023-05-21T23:29:54.282Z,21.35
2023-05-21T23:32:20.945Z,22.90
2023-05-21T23:34:48.317Z,27.15
2023-05-21T23:37:15.124Z,24.42
2023-05-21T23:39:41.748Z,23.10
2023-05-21T23:42:08.364Z,25.77
2023-05-21T23:44:34.995Z,23.30
2023-05-21T23:47:01.680Z,21.08
2023-05-21T23:49:28.282Z,24.20
2023-05-21T23:51:55.200Z,21.60
2023-05-21T23:54:21.781Z,22.63
2023-05-21T23:56:48.396Z,23.20
2023-05-21T23:59:16.977Z,22.75
